sensor_id;sensor_type;location;lat;lon;timestamp;pressure;altitude;pressure_sealevel;temperature;humidity
64632;BME280;58358;50.936;0.246;2023-01-29T00:01:11;102508.25;;;6.23;52.75
64632;BME280;58358;50.936;0.246;2023-01-29T00:03:37;102507.74;;;5.88;53.75
64632;BME280;58358;50.936;0.246;2023-01-29T00:06:04;102513.13;;;2.78;62.92
64632;BME280;58358;50.936;0.246;2023-01-29T00:08:28;102523.75;;;3.81;58.05
64632;BME280;58358;50.936;0.246;2023-01-29T00:10:59;102520.40;;;5.43;55.50
64632;BME280;58358;50.936;0.246;2023-01-29T00:13:19;102511.95;;;4.67;58.31
64632;BME280;58358;50.936;0.246;2023-01-29T00:15:52;102496.65;;;6.36;53.68
64632;BME280;58358;50.936;0.246;2023-01-29T00:18:09;102486.33;;;5.76;55.23
64632;BME280;58358;50.936;0.246;2023-01-29T00:20:35;102487.87;;;6.54;53.25
64632;BME280;58358;50.936;0.246;2023-01-29T00:23:00;102495.25;;;6.57;53.07
64632;BME280;58358;50.936;0.246;2023-01-29T00:25:25;102490.77;;;6.68;52.71
64632;BME280;58358;50.936;0.246;2023-01-29T00:27:51;102488.79;;;5.85;54.30
64632;BME280;58358;50.936;0.246;2023-01-29T00:30:17;102498.18;;;4.16;57.53
64632;BME280;58358;50.936;0.246;2023-01-29T00:32:42;102497.01;;;5.47;56.27
64632;BME280;58358;50.936;0.246;2023-01-29T00:35:08;102499.62;;;3.62;61.02
64632;BME280;58358;50.936;0.246;2023-01-29T00:37:32;102495.53;;;3.90;60.02
64632;BME280;58358;50.936;0.246;2023-01-29T00:39:58;102487.96;;;4.09;60.61
64632;BME280;58358;50.936;0.246;2023-01-29T00:42:24;102490.47;;;4.10;60.01
64632;BME280;58358;50.936;0.246;2023-01-29T00:44:49;102495.03;;;5.51;56.79
64632;BME280;58358;50.936;0.246;2023-01-29T00:47:15;102491.55;;;5.38;57.00
64632;BME280;58358;50.936;0.246;2023-01-29T00:49:40;102492.78;;;4.94;57.67
64632;BME280;58358;50.936;0.246;2023-01-29T00:52:06;102488.38;;;4.62;59.03
64632;BME280;58358;50.936;0.246;2023-01-29T00:54:32;102483.60;;;5.17;56.57
64632;BME280;58358;50.936;0.246;2023-01-29T00:56:57;102477.46;;;5.33;55.93
64632;BME280;58358;50.936;0.246;2023-01-29T00:59:23;102473.02;;;3.73;59.20
64632;BME280;58358;50.936;0.246;2023-01-29T01:01:48;102476.59;;;4.85;58.03
64632;BME280;58358;50.936;0.246;2023-01-29T01:04:14;102471.65;;;4.06;60.80
64632;BME280;58358;50.936;0.246;2023-01-29T01:06:40;102472.27;;;5.45;57.43
64632;BME280;58358;50.936;0.246;2023-01-29T01:09:06;102461.54;;;5.72;55.52
64632;BME280;58358;50.936;0.246;2023-01-29T01:11:33;102463.61;;;3.98;58.52
64632;BME280;58358;50.936;0.246;2023-01-29T01:13:57;102456.98;;;5.37;56.07
64632;BME280;58358;50.936;0.246;2023-01-29T01:16:22;102455.96;;;5.51;55.68
64632;BME280;58358;50.936;0.246;2023-01-29T01:18:48;102460.28;;;5.62;54.76
64632;BME280;58358;50.936;0.246;2023-01-29T01:21:14;102465.51;;;4.66;56.02
64632;BME280;58358;50.936;0.246;2023-01-29T01:23:39;102468.39;;;4.75;56.28
64632;BME280;58358;50.936;0.246;2023-01-29T01:26:08;102466.37;;;4.19;56.16
64632;BME280;58358;50.936;0.246;2023-01-29T01:28:29;102474.77;;;4.67;56.73
64632;BME280;58358;50.936;0.246;2023-01-29T01:30:55;102476.37;;;4.12;58.25
64632;BME280;58358;50.936;0.246;2023-01-29T01:33:20;102480.69;;;4.99;55.97
64632;BME280;58358;50.936;0.246;2023-01-29T01:35:45;102476.90;;;4.94;57.54
64632;BME280;58358;50.936;0.246;2023-01-29T01:38:10;102478.18;;;4.74;57.45
64632;BME280;58358;50.936;0.246;2023-01-29T01:40:35;102480.42;;;5.46;56.36
64632;BME280;58358;50.936;0.246;2023-01-29T01:43:01;102478.65;;;6.19;54.08
64632;BME280;58358;50.936;0.246;2023-01-29T01:45:29;102483.08;;;6.53;53.92
64632;BME280;58358;50.936;0.246;2023-01-29T01:47:57;102484.79;;;6.22;53.73
64632;BME280;58358;50.936;0.246;2023-01-29T01:50:22;102481.41;;;6.22;53.97
64632;BME280;58358;50.936;0.246;2023-01-29T01:52:48;102478.88;;;4.06;59.03
64632;BME280;58358;50.936;0.246;2023-01-29T01:55:12;102467.57;;;5.21;55.85
64632;BME280;58358;50.936;0.246;2023-01-29T01:57:35;102462.01;;;5.82;55.09
64632;BME280;58358;50.936;0.246;2023-01-29T02:00:03;102465.37;;;4.31;56.17
64632;BME280;58358;50.936;0.246;2023-01-29T02:02:26;102463.98;;;5.88;53.67
64632;BME280;58358;50.936;0.246;2023-01-29T02:04:51;102470.80;;;5.83;53.59
64632;BME280;58358;50.936;0.246;2023-01-29T02:07:16;102478.29;;;4.84;56.86
64632;BME280;58358;50.936;0.246;2023-01-29T02:09:46;102475.03;;;6.62;53.34
64632;BME280;58358;50.936;0.246;2023-01-29T02:12:09;102471.69;;;5.68;54.43
64632;BME280;58358;50.936;0.246;2023-01-29T02:14:32;102474.68;;;4.50;56.58
64632;BME280;58358;50.936;0.246;2023-01-29T02:16:59;102466.92;;;5.94;54.70
64632;BME280;58358;50.936;0.246;2023-01-29T02:19:31;102463.71;;;5.50;55.36
64632;BME280;58358;50.936;0.246;2023-01-29T02:22:02;102463.05;;;6.69;52.01
64632;BME280;58358;50.936;0.246;2023-01-29T02:26:53;102467.62;;;4.73;56.46
64632;BME280;58358;50.936;0.246;2023-01-29T02:29:06;102467.67;;;5.00;57.16
64632;BME280;58358;50.936;0.246;2023-01-29T02:31:36;102465.75;;;6.74;52.08
64632;BME280;58358;50.936;0.246;2023-01-29T02:34:07;102458.39;;;7.81;50.04
64632;BME280;58358;50.936;0.246;2023-01-29T02:36:28;102455.36;;;6.50;51.31
64632;BME280;58358;50.936;0.246;2023-01-29T02:38:54;102452.87;;;5.85;54.56
64632;BME280;58358;50.936;0.246;2023-01-29T02:41:14;102458.47;;;6.43;52.15
64632;BME280;58358;50.936;0.246;2023-01-29T02:43:44;102458.85;;;7.55;49.77
64632;BME280;58358;50.936;0.246;2023-01-29T02:46:10;102456.51;;;5.22;54.24
64632;BME280;58358;50.936;0.246;2023-01-29T02:48:37;102453.40;;;6.34;53.27
64632;BME280;58358;50.936;0.246;2023-01-29T02:50:57;102446.87;;;7.22;50.70
64632;BME280;58358;50.936;0.246;2023-01-29T02:53:24;102446.57;;;7.12;50.27
64632;BME280;58358;50.936;0.246;2023-01-29T02:55:47;102452.97;;;7.50;49.65
64632;BME280;58358;50.936;0.246;2023-01-29T02:58:14;102451.33;;;6.95;50.77
64632;BME280;58358;50.936;0.246;2023-01-29T03:00:40;102448.16;;;6.65;51.49
64632;BME280;58358;50.936;0.246;2023-01-29T03:03:05;102451.11;;;6.30;53.15
64632;BME280;58358;50.936;0.246;2023-01-29T03:05:29;102457.77;;;6.80;52.15
64632;BME280;58358;50.936;0.246;2023-01-29T03:07:53;102455.06;;;6.80;52.05
64632;BME280;58358;50.936;0.246;2023-01-29T03:10:22;102454.72;;;7.12;51.32
64632;BME280;58358;50.936;0.246;2023-01-29T03:12:44;102456.88;;;6.72;51.98
64632;BME280;58358;50.936;0.246;2023-01-29T03:15:11;102456.23;;;6.58;52.20
64632;BME280;58358;50.936;0.246;2023-01-29T03:17:39;102455.68;;;6.45;53.64
64632;BME280;58358;50.936;0.246;2023-01-29T03:20:00;102456.27;;;4.69;57.28
64632;BME280;58358;50.936;0.246;2023-01-29T03:22:25;102453.35;;;4.73;56.44
64632;BME280;58358;50.936;0.246;2023-01-29T03:24:52;102447.61;;;5.75;55.63
64632;BME280;58358;50.936;0.246;2023-01-29T03:27:18;102449.71;;;5.40;56.22
64632;BME280;58358;50.936;0.246;2023-01-29T03:29:42;102447.36;;;6.45;53.78
64632;BME280;58358;50.936;0.246;2023-01-29T03:32:07;102447.38;;;5.41;54.94
64632;BME280;58358;50.936;0.246;2023-01-29T03:34:38;102444.29;;;5.78;53.68
64632;BME280;58358;50.936;0.246;2023-01-29T03:37:02;102441.84;;;5.99;54.27
64632;BME280;58358;50.936;0.246;2023-01-29T03:39:24;102443.12;;;5.18;55.95
64632;BME280;58358;50.936;0.246;2023-01-29T03:41:54;102445.09;;;5.03;57.55
64632;BME280;58358;50.936;0.246;2023-01-29T03:44:16;102444.56;;;4.99;58.36
64632;BME280;58358;50.936;0.246;2023-01-29T03:46:44;102445.44;;;4.91;58.46
64632;BME280;58358;50.936;0.246;2023-01-29T03:49:10;102437.21;;;4.47;59.16
64632;BME280;58358;50.936;0.246;2023-01-29T03:51:34;102432.22;;;6.08;55.22
64632;BME280;58358;50.936;0.246;2023-01-29T03:53:58;102434.80;;;5.81;55.21
64632;BME280;58358;50.936;0.246;2023-01-29T03:56:31;102436.98;;;5.72;55.27
64632;BME280;58358;50.936;0.246;2023-01-29T03:58:50;102434.35;;;5.38;56.97
64632;BME280;58358;50.936;0.246;2023-01-29T04:01:16;102434.85;;;5.83;55.29
64632;BME280;58358;50.936;0.246;2023-01-29T04:03:38;102436.30;;;5.47;56.07
64632;BME280;58358;50.936;0.246;2023-01-29T04:06:08;102431.86;;;6.40;54.29
64632;BME280;58358;50.936;0.246;2023-01-29T04:08:31;102437.42;;;4.88;58.57
64632;BME280;58358;50.936;0.246;2023-01-29T04:10:54;102432.94;;;5.79;56.41
64632;BME280;58358;50.936;0.246;2023-01-29T04:13:18;102429.00;;;5.33;56.82
64632;BME280;58358;50.936;0.246;2023-01-29T04:15:48;102434.19;;;4.97;59.25
64632;BME280;58358;50.936;0.246;2023-01-29T04:18:09;102429.95;;;5.46;55.13
64632;BME280;58358;50.936;0.246;2023-01-29T04:20:34;102431.31;;;6.08;54.98
64632;BME280;58358;50.936;0.246;2023-01-29T04:22:59;102426.23;;;6.61;53.30
64632;BME280;58358;50.936;0.246;2023-01-29T04:25:27;102429.41;;;3.38;59.89
64632;BME280;58358;50.936;0.246;2023-01-29T04:27:57;102428.56;;;4.86;58.42
64632;BME280;58358;50.936;0.246;2023-01-29T04:30:25;102419.40;;;5.67;55.45
64632;BME280;58358;50.936;0.246;2023-01-29T04:32:54;102425.40;;;5.23;58.01
64632;BME280;58358;50.936;0.246;2023-01-29T04:35:17;102419.51;;;5.72;56.39
64632;BME280;58358;50.936;0.246;2023-01-29T04:37:36;102421.29;;;5.31;58.07
64632;BME280;58358;50.936;0.246;2023-01-29T04:40:02;102418.19;;;4.49;59.32
64632;BME280;58358;50.936;0.246;2023-01-29T04:42:30;102417.27;;;5.18;59.29
64632;BME280;58358;50.936;0.246;2023-01-29T04:44:56;102416.51;;;4.85;60.61
64632;BME280;58358;50.936;0.246;2023-01-29T04:47:23;102412.15;;;5.15;60.11
64632;BME280;58358;50.936;0.246;2023-01-29T04:49:45;102408.05;;;5.15;60.06
64632;BME280;58358;50.936;0.246;2023-01-29T04:52:11;102404.85;;;4.53;60.99
64632;BME280;58358;50.936;0.246;2023-01-29T04:54:38;102394.66;;;4.95;58.53
64632;BME280;58358;50.936;0.246;2023-01-29T04:57:03;102393.61;;;5.69;57.56
64632;BME280;58358;50.936;0.246;2023-01-29T04:59:28;102394.21;;;5.16;58.97
64632;BME280;58358;50.936;0.246;2023-01-29T05:01:47;102393.20;;;6.10;56.26
64632;BME280;58358;50.936;0.246;2023-01-29T05:04:14;102397.62;;;6.90;54.22
64632;BME280;58358;50.936;0.246;2023-01-29T05:06:38;102393.49;;;6.36;55.98
64632;BME280;58358;50.936;0.246;2023-01-29T05:09:03;102389.29;;;5.53;57.45
64632;BME280;58358;50.936;0.246;2023-01-29T05:11:29;102390.83;;;4.58;59.05
64632;BME280;58358;50.936;0.246;2023-01-29T05:13:55;102389.30;;;5.72;58.00
64632;BME280;58358;50.936;0.246;2023-01-29T05:16:23;102390.18;;;4.62;59.89
64632;BME280;58358;50.936;0.246;2023-01-29T05:18:45;102381.01;;;5.65;58.24
64632;BME280;58358;50.936;0.246;2023-01-29T05:21:10;102376.86;;;5.56;59.21
64632;BME280;58358;50.936;0.246;2023-01-29T05:23:36;102374.07;;;4.73;62.54
64632;BME280;58358;50.936;0.246;2023-01-29T05:26:02;102373.52;;;5.22;61.21
64632;BME280;58358;50.936;0.246;2023-01-29T05:28:27;102374.92;;;5.56;58.82
64632;BME280;58358;50.936;0.246;2023-01-29T05:30:54;102368.39;;;5.03;60.52
64632;BME280;58358;50.936;0.246;2023-01-29T05:33:19;102370.58;;;4.30;62.11
64632;BME280;58358;50.936;0.246;2023-01-29T05:35:44;102371.23;;;4.76;63.73
64632;BME280;58358;50.936;0.246;2023-01-29T05:38:10;102366.34;;;5.48;61.18
64632;BME280;58358;50.936;0.246;2023-01-29T05:40:35;102362.72;;;5.52;61.04
64632;BME280;58358;50.936;0.246;2023-01-29T05:43:00;102360.06;;;5.98;59.31
64632;BME280;58358;50.936;0.246;2023-01-29T05:45:26;102360.82;;;6.56;58.07
64632;BME280;58358;50.936;0.246;2023-01-29T05:47:56;102359.77;;;6.06;57.61
64632;BME280;58358;50.936;0.246;2023-01-29T05:50:17;102354.04;;;5.93;58.91
64632;BME280;58358;50.936;0.246;2023-01-29T05:52:43;102350.08;;;5.52;59.72
64632;BME280;58358;50.936;0.246;2023-01-29T05:55:09;102347.66;;;5.93;58.00
64632;BME280;58358;50.936;0.246;2023-01-29T05:57:34;102346.82;;;4.54;61.73
64632;BME280;58358;50.936;0.246;2023-01-29T05:59:59;102348.27;;;6.05;60.17
64632;BME280;58358;50.936;0.246;2023-01-29T06:02:25;102347.44;;;6.80;56.14
64632;BME280;58358;50.936;0.246;2023-01-29T06:04:51;102345.59;;;6.69;56.49
64632;BME280;58358;50.936;0.246;2023-01-29T06:07:17;102348.01;;;6.21;58.52
64632;BME280;58358;50.936;0.246;2023-01-29T06:09:42;102338.82;;;5.85;59.43
64632;BME280;58358;50.936;0.246;2023-01-29T06:12:07;102334.27;;;5.42;60.56
64632;BME280;58358;50.936;0.246;2023-01-29T06:14:32;102329.27;;;5.80;59.43
64632;BME280;58358;50.936;0.246;2023-01-29T06:16:57;102327.75;;;5.22;61.60
64632;BME280;58358;50.936;0.246;2023-01-29T06:19:23;102333.52;;;6.53;57.95
64632;BME280;58358;50.936;0.246;2023-01-29T06:21:48;102336.44;;;4.81;63.44
64632;BME280;58358;50.936;0.246;2023-01-29T06:24:14;102335.08;;;5.76;59.89
64632;BME280;58358;50.936;0.246;2023-01-29T06:26:39;102335.50;;;6.24;59.14
64632;BME280;58358;50.936;0.246;2023-01-29T06:29:05;102338.38;;;4.95;63.14
64632;BME280;58358;50.936;0.246;2023-01-29T06:31:30;102338.15;;;6.20;59.25
64632;BME280;58358;50.936;0.246;2023-01-29T06:33:56;102337.66;;;6.06;59.47
64632;BME280;58358;50.936;0.246;2023-01-29T06:36:21;102338.64;;;6.05;60.06
64632;BME280;58358;50.936;0.246;2023-01-29T06:38:46;102339.24;;;3.91;64.78
64632;BME280;58358;50.936;0.246;2023-01-29T06:41:14;102338.80;;;4.29;64.29
64632;BME280;58358;50.936;0.246;2023-01-29T06:43:37;102336.93;;;5.25;62.30
64632;BME280;58358;50.936;0.246;2023-01-29T06:46:03;102331.53;;;4.97;63.78
64632;BME280;58358;50.936;0.246;2023-01-29T06:48:28;102334.80;;;3.40;67.83
64632;BME280;58358;50.936;0.246;2023-01-29T06:50:53;102337.37;;;4.63;66.12
64632;BME280;58358;50.936;0.246;2023-01-29T06:53:18;102336.88;;;4.46;65.86
64632;BME280;58358;50.936;0.246;2023-01-29T06:55:50;102334.78;;;5.36;63.35
64632;BME280;58358;50.936;0.246;2023-01-29T06:58:11;102342.08;;;3.44;67.38
64632;BME280;58358;50.936;0.246;2023-01-29T07:00:35;102352.25;;;4.83;65.31
64632;BME280;58358;50.936;0.246;2023-01-29T07:03:00;102351.93;;;3.00;68.55
64632;BME280;58358;50.936;0.246;2023-01-29T07:05:25;102347.95;;;3.90;67.34
64632;BME280;58358;50.936;0.246;2023-01-29T07:07:51;102343.41;;;5.22;64.07
64632;BME280;58358;50.936;0.246;2023-01-29T07:10:17;102337.00;;;5.27;61.58
64632;BME280;58358;50.936;0.246;2023-01-29T07:12:42;102336.09;;;6.35;59.80
64632;BME280;58358;50.936;0.246;2023-01-29T07:15:09;102335.89;;;5.00;60.90
64632;BME280;58358;50.936;0.246;2023-01-29T07:17:33;102337.96;;;6.63;58.67
64632;BME280;58358;50.936;0.246;2023-01-29T07:19:58;102338.41;;;6.33;58.37
64632;BME280;58358;50.936;0.246;2023-01-29T07:22:24;102338.98;;;6.60;58.37
64632;BME280;58358;50.936;0.246;2023-01-29T07:24:49;102340.13;;;5.49;59.12
64632;BME280;58358;50.936;0.246;2023-01-29T07:27:14;102342.22;;;6.17;59.74
64632;BME280;58358;50.936;0.246;2023-01-29T07:29:40;102343.31;;;5.11;62.82
64632;BME280;58358;50.936;0.246;2023-01-29T07:32:05;102342.61;;;3.23;67.28
64632;BME280;58358;50.936;0.246;2023-01-29T07:34:30;102334.74;;;5.44;62.13
64632;BME280;58358;50.936;0.246;2023-01-29T07:36:55;102334.74;;;6.04;59.16
64632;BME280;58358;50.936;0.246;2023-01-29T07:39:20;102332.59;;;6.32;58.84
64632;BME280;58358;50.936;0.246;2023-01-29T07:41:46;102332.22;;;6.47;57.64
64632;BME280;58358;50.936;0.246;2023-01-29T07:44:11;102335.39;;;5.59;62.71
64632;BME280;58358;50.936;0.246;2023-01-29T07:46:37;102336.70;;;5.26;62.80
64632;BME280;58358;50.936;0.246;2023-01-29T07:49:02;102334.93;;;5.72;61.45
64632;BME280;58358;50.936;0.246;2023-01-29T07:51:27;102335.75;;;4.47;64.13
64632;BME280;58358;50.936;0.246;2023-01-29T07:53:53;102338.36;;;5.90;59.91
64632;BME280;58358;50.936;0.246;2023-01-29T07:56:19;102339.09;;;6.35;57.57
64632;BME280;58358;50.936;0.246;2023-01-29T07:58:44;102338.85;;;6.42;58.15
64632;BME280;58358;50.936;0.246;2023-01-29T08:01:10;102340.13;;;4.62;62.88
64632;BME280;58358;50.936;0.246;2023-01-29T08:03:35;102340.23;;;5.68;60.52
64632;BME280;58358;50.936;0.246;2023-01-29T08:06:02;102340.57;;;6.57;58.69
64632;BME280;58358;50.936;0.246;2023-01-29T08:08:26;102344.27;;;4.15;64.92
64632;BME280;58358;50.936;0.246;2023-01-29T08:10:52;102345.68;;;5.68;60.97
64632;BME280;58358;50.936;0.246;2023-01-29T08:13:18;102343.47;;;5.02;63.08
64632;BME280;58358;50.936;0.246;2023-01-29T08:15:44;102339.61;;;6.67;58.66
64632;BME280;58358;50.936;0.246;2023-01-29T08:18:09;102338.67;;;6.20;59.02
64632;BME280;58358;50.936;0.246;2023-01-29T08:20:34;102334.00;;;6.77;57.11
64632;BME280;58358;50.936;0.246;2023-01-29T08:23:01;102331.60;;;7.09;56.31
64632;BME280;58358;50.936;0.246;2023-01-29T08:25:25;102330.79;;;5.27;61.94
64632;BME280;58358;50.936;0.246;2023-01-29T08:27:51;102331.67;;;4.35;65.07
64632;BME280;58358;50.936;0.246;2023-01-29T08:30:17;102322.46;;;5.88;62.63
64632;BME280;58358;50.936;0.246;2023-01-29T08:32:42;102317.58;;;6.09;60.72
64632;BME280;58358;50.936;0.246;2023-01-29T08:35:08;102316.77;;;6.00;61.85
64632;BME280;58358;50.936;0.246;2023-01-29T08:37:32;102316.23;;;6.03;60.75
64632;BME280;58358;50.936;0.246;2023-01-29T08:39:58;102313.46;;;6.93;59.44
64632;BME280;58358;50.936;0.246;2023-01-29T08:42:23;102313.07;;;6.88;58.37
64632;BME280;58358;50.936;0.246;2023-01-29T08:44:48;102317.31;;;7.28;57.99
64632;BME280;58358;50.936;0.246;2023-01-29T08:47:14;102314.92;;;6.59;60.55
64632;BME280;58358;50.936;0.246;2023-01-29T08:49:39;102311.99;;;7.15;57.80
64632;BME280;58358;50.936;0.246;2023-01-29T08:52:05;102311.45;;;6.92;60.21
64632;BME280;58358;50.936;0.246;2023-01-29T08:54:30;102304.43;;;5.72;62.64
64632;BME280;58358;50.936;0.246;2023-01-29T08:56:55;102300.74;;;6.78;59.93
64632;BME280;58358;50.936;0.246;2023-01-29T08:59:21;102298.20;;;6.76;59.40
64632;BME280;58358;50.936;0.246;2023-01-29T09:01:46;102297.78;;;5.57;62.50
64632;BME280;58358;50.936;0.246;2023-01-29T09:04:12;102298.76;;;6.50;61.14
64632;BME280;58358;50.936;0.246;2023-01-29T09:06:37;102303.26;;;6.62;59.84
64632;BME280;58358;50.936;0.246;2023-01-29T09:09:03;102307.40;;;7.07;60.07
64632;BME280;58358;50.936;0.246;2023-01-29T09:11:28;102317.28;;;5.91;63.18
64632;BME280;58358;50.936;0.246;2023-01-29T09:13:54;102311.62;;;5.81;63.47
64632;BME280;58358;50.936;0.246;2023-01-29T09:16:19;102303.86;;;5.16;65.30
64632;BME280;58358;50.936;0.246;2023-01-29T09:18:45;102301.48;;;5.18;66.85
64632;BME280;58358;50.936;0.246;2023-01-29T09:21:11;102302.12;;;5.22;66.11
64632;BME280;58358;50.936;0.246;2023-01-29T09:23:36;102300.63;;;5.39;65.30
64632;BME280;58358;50.936;0.246;2023-01-29T09:26:01;102298.53;;;6.11;65.07
64632;BME280;58358;50.936;0.246;2023-01-29T09:28:27;102299.34;;;5.79;66.60
64632;BME280;58358;50.936;0.246;2023-01-29T09:30:53;102302.43;;;4.91;68.95
64632;BME280;58358;50.936;0.246;2023-01-29T09:33:18;102304.49;;;4.36;72.38
64632;BME280;58358;50.936;0.246;2023-01-29T09:35:43;102300.52;;;5.36;69.30
64632;BME280;58358;50.936;0.246;2023-01-29T09:38:09;102302.41;;;5.14;69.77
64632;BME280;58358;50.936;0.246;2023-01-29T09:40:42;102299.17;;;4.58;71.90
64632;BME280;58358;50.936;0.246;2023-01-29T09:43:03;102299.35;;;5.32;71.62
64632;BME280;58358;50.936;0.246;2023-01-29T09:45:27;102298.81;;;4.59;73.07
64632;BME280;58358;50.936;0.246;2023-01-29T09:47:53;102311.18;;;4.24;74.50
64632;BME280;58358;50.936;0.246;2023-01-29T09:50:19;102313.59;;;4.02;75.96
64632;BME280;58358;50.936;0.246;2023-01-29T09:52:45;102308.41;;;3.38;77.95
64632;BME280;58358;50.936;0.246;2023-01-29T09:55:13;102307.35;;;3.72;78.58
64632;BME280;58358;50.936;0.246;2023-01-29T09:57:40;102305.13;;;2.98;80.46
64632;BME280;58358;50.936;0.246;2023-01-29T09:59:59;102309.31;;;3.94;76.22
64632;BME280;58358;50.936;0.246;2023-01-29T10:05:01;102305.08;;;3.84;76.73
64632;BME280;58358;50.936;0.246;2023-01-29T10:07:28;102303.25;;;4.42;75.08
64632;BME280;58358;50.936;0.246;2023-01-29T10:09:57;102305.21;;;4.18;75.68
64632;BME280;58358;50.936;0.246;2023-01-29T10:12:22;102304.65;;;4.21;76.30
64632;BME280;58358;50.936;0.246;2023-01-29T10:14:38;102306.35;;;4.15;77.35
64632;BME280;58358;50.936;0.246;2023-01-29T10:17:09;102301.26;;;3.59;78.56
64632;BME280;58358;50.936;0.246;2023-01-29T10:19:33;102299.53;;;3.50;78.87
64632;BME280;58358;50.936;0.246;2023-01-29T10:22:02;102301.73;;;3.38;78.36
64632;BME280;58358;50.936;0.246;2023-01-29T10:24:23;102305.37;;;3.47;78.39
64632;BME280;58358;50.936;0.246;2023-01-29T10:26:40;102306.93;;;3.90;76.82
64632;BME280;58358;50.936;0.246;2023-01-29T10:29:06;102310.76;;;3.55;75.95
64632;BME280;58358;50.936;0.246;2023-01-29T10:31:32;102310.87;;;3.24;78.02
64632;BME280;58358;50.936;0.246;2023-01-29T10:33:59;102311.63;;;2.98;81.19
64632;BME280;58358;50.936;0.246;2023-01-29T10:36:27;102308.96;;;3.36;78.37
64632;BME280;58358;50.936;0.246;2023-01-29T10:38:49;102310.45;;;3.27;80.78
64632;BME280;58358;50.936;0.246;2023-01-29T10:41:24;102307.70;;;3.40;79.42
64632;BME280;58358;50.936;0.246;2023-01-29T10:43:47;102306.70;;;3.84;77.56
64632;BME280;58358;50.936;0.246;2023-01-29T10:46:13;102303.35;;;3.07;78.87
64632;BME280;58358;50.936;0.246;2023-01-29T10:48:39;102300.31;;;3.59;78.33
64632;BME280;58358;50.936;0.246;2023-01-29T10:51:02;102300.91;;;4.04;76.27
64632;BME280;58358;50.936;0.246;2023-01-29T10:53:32;102296.62;;;3.69;77.43
64632;BME280;58358;50.936;0.246;2023-01-29T10:55:53;102287.84;;;3.22;78.25
64632;BME280;58358;50.936;0.246;2023-01-29T10:58:19;102283.80;;;3.65;78.47
64632;BME280;58358;50.936;0.246;2023-01-29T11:00:38;102278.13;;;3.08;81.04
64632;BME280;58358;50.936;0.246;2023-01-29T11:03:13;102275.81;;;4.60;75.82
64632;BME280;58358;50.936;0.246;2023-01-29T11:05:33;102272.35;;;4.19;75.87
64632;BME280;58358;50.936;0.246;2023-01-29T11:08:02;102273.63;;;4.15;75.82
64632;BME280;58358;50.936;0.246;2023-01-29T11:10:23;102266.14;;;4.59;73.38
64632;BME280;58358;50.936;0.246;2023-01-29T11:12:45;102271.16;;;3.55;78.30
64632;BME280;58358;50.936;0.246;2023-01-29T11:15:17;102272.28;;;4.07;78.76
64632;BME280;58358;50.936;0.246;2023-01-29T11:17:35;102263.14;;;2.98;81.59
64632;BME280;58358;50.936;0.246;2023-01-29T11:20:00;102257.09;;;2.24;84.71
64632;BME280;58358;50.936;0.246;2023-01-29T11:22:27;102252.42;;;3.61;82.09
64632;BME280;58358;50.936;0.246;2023-01-29T11:27:23;102247.92;;;4.29;78.15
64632;BME280;58358;50.936;0.246;2023-01-29T11:29:44;102239.15;;;4.87;77.11
64632;BME280;58358;50.936;0.246;2023-01-29T11:32:13;102231.19;;;4.44;78.02
64632;BME280;58358;50.936;0.246;2023-01-29T11:34:34;102228.39;;;4.32;77.99
64632;BME280;58358;50.936;0.246;2023-01-29T11:37:01;102228.54;;;4.29;79.63
64632;BME280;58358;50.936;0.246;2023-01-29T11:39:26;102219.80;;;4.09;80.84
64632;BME280;58358;50.936;0.246;2023-01-29T11:41:55;102219.68;;;4.13;80.74
64632;BME280;58358;50.936;0.246;2023-01-29T11:44:18;102212.26;;;3.89;82.80
64632;BME280;58358;50.936;0.246;2023-01-29T11:46:42;102204.41;;;4.24;82.29
64632;BME280;58358;50.936;0.246;2023-01-29T11:49:17;102203.86;;;4.05;84.35
64632;BME280;58358;50.936;0.246;2023-01-29T11:51:34;102200.82;;;3.85;85.90
64632;BME280;58358;50.936;0.246;2023-01-29T11:53:59;102190.35;;;4.64;84.40
64632;BME280;58358;50.936;0.246;2023-01-29T11:56:31;102185.80;;;4.50;81.61
64632;BME280;58358;50.936;0.246;2023-01-29T11:58:50;102178.58;;;4.96;81.63
64632;BME280;58358;50.936;0.246;2023-01-29T12:01:16;102173.53;;;5.21;80.10
64632;BME280;58358;50.936;0.246;2023-01-29T12:03:42;102164.52;;;4.16;83.75
64632;BME280;58358;50.936;0.246;2023-01-29T12:06:07;102160.56;;;4.35;83.36
64632;BME280;58358;50.936;0.246;2023-01-29T12:08:35;102151.58;;;4.30;84.12
64632;BME280;58358;50.936;0.246;2023-01-29T12:11:07;102141.96;;;5.04;81.28
64632;BME280;58358;50.936;0.246;2023-01-29T12:13:26;102143.04;;;4.23;82.96
64632;BME280;58358;50.936;0.246;2023-01-29T12:15:48;102135.54;;;3.82;84.18
64632;BME280;58358;50.936;0.246;2023-01-29T12:18:19;102135.62;;;3.20;88.10
64632;BME280;58358;50.936;0.246;2023-01-29T12:20:42;102129.77;;;4.66;82.98
64632;BME280;58358;50.936;0.246;2023-01-29T12:23:16;102121.54;;;4.26;84.72
64632;BME280;58358;50.936;0.246;2023-01-29T12:25:43;102117.14;;;4.51;84.57
64632;BME280;58358;50.936;0.246;2023-01-29T12:27:59;102118.04;;;4.52;85.35
64632;BME280;58358;50.936;0.246;2023-01-29T12:30:26;102106.53;;;3.92;86.37
64632;BME280;58358;50.936;0.246;2023-01-29T12:32:51;102106.19;;;4.42;86.78
64632;BME280;58358;50.936;0.246;2023-01-29T12:35:18;102102.12;;;3.49;89.10
64632;BME280;58358;50.936;0.246;2023-01-29T12:37:43;102095.22;;;4.52;86.50
64632;BME280;58358;50.936;0.246;2023-01-29T12:40:11;102090.11;;;4.34;86.42
64632;BME280;58358;50.936;0.246;2023-01-29T12:42:31;102088.11;;;4.21;86.64
64632;BME280;58358;50.936;0.246;2023-01-29T12:45:00;102080.60;;;4.47;85.82
64632;BME280;58358;50.936;0.246;2023-01-29T12:47:26;102078.34;;;5.06;82.91
64632;BME280;58358;50.936;0.246;2023-01-29T12:49:51;102072.26;;;4.53;86.08
64632;BME280;58358;50.936;0.246;2023-01-29T12:52:16;102066.73;;;4.07;86.80
64632;BME280;58358;50.936;0.246;2023-01-29T12:54:40;102063.14;;;4.32;88.56
64632;BME280;58358;50.936;0.246;2023-01-29T12:57:09;102053.80;;;3.86;88.33